sensor_id;sensor_type;location;lat;lon;timestamp;pressure;altitude;pressure_sealevel;temperature;humidity
19086;BME280;9675;51.538;6.728;2024-03-29T00:01:30;98967.72;;;9.79;81.36
19086;BME280;9675;51.538;6.728;2024-03-29T00:03:56;98965.09;;;9.77;81.67
19086;BME280;9675;51.538;6.728;2024-03-29T00:06:22;98965.09;;;9.77;80.79
19086;BME280;9675;51.538;6.728;2024-03-29T00:08:48;98955.63;;;9.75;80.89
19086;BME280;9675;51.538;6.728;2024-03-29T00:11:14;98956.47;;;9.75;79.82
19086;BME280;9675;51.538;6.728;2024-03-29T00:13:42;98950.47;;;9.73;80.27
19086;BME280;9675;51.538;6.728;2024-03-29T00:16:08;98947.03;;;9.73;80.16
19086;BME280;9675;51.538;6.728;2024-03-29T00:18:34;98947.84;;;9.72;80.28
19086;BME280;9675;51.538;6.728;2024-03-29T00:21:00;98938.44;;;9.72;80.05
19086;BME280;9675;51.538;6.728;2024-03-29T00:23:26;98934.97;;;9.70;79.95
19086;BME280;9675;51.538;6.728;2024-03-29T00:25:53;98930.63;;;9.69;79.36
19086;BME280;9675;51.538;6.728;2024-03-29T00:28:19;98914.34;;;9.67;79.54
19086;BME280;9675;51.538;6.728;2024-03-29T00:30:46;98919.47;;;9.67;80.69
19086;BME280;9675;51.538;6.728;2024-03-29T00:33:12;98930.63;;;9.68;80.16
19086;BME280;9675;51.538;6.728;2024-03-29T00:35:39;98917.78;;;9.68;80.75
19086;BME280;9675;51.538;6.728;2024-03-29T00:38:05;98928.06;;;9.69;80.34
19086;BME280;9675;51.538;6.728;2024-03-29T00:40:31;98930.63;;;9.68;80.96
19086;BME280;9675;51.538;6.728;2024-03-29T00:42:57;98940.03;;;9.67;81.35
19086;BME280;9675;51.538;6.728;2024-03-29T00:45:23;98953.75;;;9.68;81.21
19086;BME280;9675;51.538;6.728;2024-03-29T00:47:51;98964.03;;;9.68;81.23
19086;BME280;9675;51.538;6.728;2024-03-29T00:50:17;98964.00;;;9.66;81.51
19086;BME280;9675;51.538;6.728;2024-03-29T00:52:43;98961.44;;;9.66;81.82
19086;BME280;9675;51.538;6.728;2024-03-29T00:55:09;98964.00;;;9.66;80.97
19086;BME280;9675;51.538;6.728;2024-03-29T00:57:35;98965.66;;;9.64;80.71
19086;BME280;9675;51.538;6.728;2024-03-29T01:00:02;98960.50;;;9.64;81.59
19086;BME280;9675;51.538;6.728;2024-03-29T01:02:28;98969.09;;;9.65;80.40
19086;BME280;9675;51.538;6.728;2024-03-29T01:04:56;98958.78;;;9.63;79.97
19086;BME280;9675;51.538;6.728;2024-03-29T01:07:22;98951.91;;;9.62;80.55
19086;BME280;9675;51.538;6.728;2024-03-29T01:09:48;98954.50;;;9.62;80.92
19086;BME280;9675;51.538;6.728;2024-03-29T01:12:15;98958.72;;;9.60;79.92
19086;BME280;9675;51.538;6.728;2024-03-29T01:14:41;98950.13;;;9.58;80.02
19086;BME280;9675;51.538;6.728;2024-03-29T01:17:07;98948.44;;;9.60;79.43
19086;BME280;9675;51.538;6.728;2024-03-29T01:19:33;98968.94;;;9.57;79.96
19086;BME280;9675;51.538;6.728;2024-03-29T01:22:01;98975.81;;;9.60;80.36
19086;BME280;9675;51.538;6.728;2024-03-29T01:24:27;98973.19;;;9.57;79.96
19086;BME280;9675;51.538;6.728;2024-03-29T01:26:53;98972.31;;;9.56;79.87
19086;BME280;9675;51.538;6.728;2024-03-29T01:29:19;98974.06;;;9.57;80.24
19086;BME280;9675;51.538;6.728;2024-03-29T01:31:46;98971.50;;;9.57;79.36
19086;BME280;9675;51.538;6.728;2024-03-29T01:34:12;98974.06;;;9.57;79.40
19086;BME280;9675;51.538;6.728;2024-03-29T01:36:38;98960.41;;;9.58;78.74
19086;BME280;9675;51.538;6.728;2024-03-29T01:39:05;98951.78;;;9.56;78.50
19086;BME280;9675;51.538;6.728;2024-03-29T01:41:32;98946.63;;;9.56;78.70
19086;BME280;9675;51.538;6.728;2024-03-29T01:43:58;98953.50;;;9.57;77.75
19086;BME280;9675;51.538;6.728;2024-03-29T01:46:26;98947.56;;;9.58;77.78
19086;BME280;9675;51.538;6.728;2024-03-29T01:48:53;98948.38;;;9.59;77.32
19086;BME280;9675;51.538;6.728;2024-03-29T01:51:24;98951.81;;;9.59;77.38
19086;BME280;9675;51.538;6.728;2024-03-29T01:53:54;98951.81;;;9.59;77.80
19086;BME280;9675;51.538;6.728;2024-03-29T01:56:22;98944.13;;;9.59;77.45
19086;BME280;9675;51.538;6.728;2024-03-29T01:58:52;98930.41;;;9.59;77.83
19086;BME280;9675;51.538;6.728;2024-03-29T02:01:21;98952.69;;;9.60;77.65
19086;BME280;9675;51.538;6.728;2024-03-29T02:03:48;98942.41;;;9.60;77.00
19086;BME280;9675;51.538;6.728;2024-03-29T02:06:19;98923.59;;;9.61;76.62
19086;BME280;9675;51.538;6.728;2024-03-29T02:08:49;98915.84;;;9.59;77.68
19086;BME280;9675;51.538;6.728;2024-03-29T02:11:18;98901.31;;;9.60;77.49
19086;BME280;9675;51.538;6.728;2024-03-29T02:13:49;98906.44;;;9.58;77.32
19086;BME280;9675;51.538;6.728;2024-03-29T02:16:16;98893.59;;;9.58;77.38
19086;BME280;9675;51.538;6.728;2024-03-29T02:18:44;98895.25;;;9.56;77.29
19086;BME280;9675;51.538;6.728;2024-03-29T02:21:11;98906.34;;;9.55;77.40
19086;BME280;9675;51.538;6.728;2024-03-29T02:23:44;98909.84;;;9.57;77.27
19086;BME280;9675;51.538;6.728;2024-03-29T02:26:14;98896.13;;;9.57;76.92
19086;BME280;9675;51.538;6.728;2024-03-29T02:28:41;98889.19;;;9.53;77.50
19086;BME280;9675;51.538;6.728;2024-03-29T02:31:08;98901.16;;;9.52;76.33
19086;BME280;9675;51.538;6.728;2024-03-29T02:33:35;98914.94;;;9.56;75.70
19086;BME280;9675;51.538;6.728;2024-03-29T02:36:03;98914.97;;;9.57;76.13
19086;BME280;9675;51.538;6.728;2024-03-29T02:38:30;98911.53;;;9.57;75.88
19086;BME280;9675;51.538;6.728;2024-03-29T02:40:57;98913.22;;;9.56;76.09
19086;BME280;9675;51.538;6.728;2024-03-29T02:43:25;98927.81;;;9.57;75.38
19086;BME280;9675;51.538;6.728;2024-03-29T02:45:52;98922.69;;;9.57;75.83
19086;BME280;9675;51.538;6.728;2024-03-29T02:48:19;98915.84;;;9.59;76.06
19086;BME280;9675;51.538;6.728;2024-03-29T02:50:45;98922.75;;;9.60;75.87
19086;BME280;9675;51.538;6.728;2024-03-29T02:53:12;98923.56;;;9.58;76.33
19086;BME280;9675;51.538;6.728;2024-03-29T02:55:40;98924.44;;;9.58;76.35
19086;BME280;9675;51.538;6.728;2024-03-29T02:58:08;98938.16;;;9.60;76.39
19086;BME280;9675;51.538;6.728;2024-03-29T03:00:35;98944.16;;;9.61;76.20
19086;BME280;9675;51.538;6.728;2024-03-29T03:03:02;98948.47;;;9.62;76.18
19086;BME280;9675;51.538;6.728;2024-03-29T03:05:29;98957.06;;;9.62;76.05
19086;BME280;9675;51.538;6.728;2024-03-29T03:07:56;98951.97;;;9.65;77.75
19086;BME280;9675;51.538;6.728;2024-03-29T03:10:45;98953.66;;;9.65;79.76
19086;BME280;9675;51.538;6.728;2024-03-29T03:13:27;98952.78;;;9.63;81.66
19086;BME280;9675;51.538;6.728;2024-03-29T03:15:55;98945.09;;;9.64;82.66
19086;BME280;9675;51.538;6.728;2024-03-29T03:18:23;98939.94;;;9.64;84.27
19086;BME280;9675;51.538;6.728;2024-03-29T03:20:53;98938.25;;;9.63;86.54
19086;BME280;9675;51.538;6.728;2024-03-29T03:23:20;98934.75;;;9.61;88.22
19086;BME280;9675;51.538;6.728;2024-03-29T03:25:53;98938.97;;;9.59;89.94
19086;BME280;9675;51.538;6.728;2024-03-29T03:28:20;98932.16;;;9.60;91.91
19086;BME280;9675;51.538;6.728;2024-03-29T03:30:47;98930.41;;;9.59;93.86
19086;BME280;9675;51.538;6.728;2024-03-29T03:33:15;98931.28;;;9.59;94.41
19086;BME280;9675;51.538;6.728;2024-03-29T03:35:42;98914.97;;;9.57;94.75
19086;BME280;9675;51.538;6.728;2024-03-29T03:38:09;98915.81;;;9.56;94.55
19086;BME280;9675;51.538;6.728;2024-03-29T03:40:37;98919.19;;;9.55;95.28
19086;BME280;9675;51.538;6.728;2024-03-29T03:43:05;98925.16;;;9.54;95.82
19086;BME280;9675;51.538;6.728;2024-03-29T03:45:34;98932.00;;;9.54;95.39
19086;BME280;9675;51.538;6.728;2024-03-29T03:48:02;98929.44;;;9.54;95.39
19086;BME280;9675;51.538;6.728;2024-03-29T03:50:30;98911.44;;;9.52;95.73
19086;BME280;9675;51.538;6.728;2024-03-29T03:52:56;98908.03;;;9.53;94.44
19086;BME280;9675;51.538;6.728;2024-03-29T03:55:24;98920.88;;;9.53;93.50
19086;BME280;9675;51.538;6.728;2024-03-29T03:57:50;98922.59;;;9.54;93.02
19086;BME280;9675;51.538;6.728;2024-03-29T04:00:19;98918.31;;;9.53;92.08
19086;BME280;9675;51.538;6.728;2024-03-29T04:02:47;98918.31;;;9.53;91.11
19086;BME280;9675;51.538;6.728;2024-03-29T04:05:16;98931.16;;;9.53;92.45
19086;BME280;9675;51.538;6.728;2024-03-29T04:07:43;98939.75;;;9.55;94.74
19086;BME280;9675;51.538;6.728;2024-03-29T04:10:10;98930.34;;;9.56;96.93
19086;BME280;9675;51.538;6.728;2024-03-29T04:12:37;98943.16;;;9.54;99.26
19086;BME280;9675;51.538;6.728;2024-03-29T04:15:06;98944.00;;;9.53;100.00
19086;BME280;9675;51.538;6.728;2024-03-29T04:17:32;98936.22;;;9.50;100.00
19086;BME280;9675;51.538;6.728;2024-03-29T04:20:00;98936.16;;;9.49;100.00
19086;BME280;9675;51.538;6.728;2024-03-29T04:22:28;98927.53;;;9.45;100.00
19086;BME280;9675;51.538;6.728;2024-03-29T04:24:57;98942.06;;;9.45;100.00
19086;BME280;9675;51.538;6.728;2024-03-29T04:27:23;98933.47;;;9.43;100.00
19086;BME280;9675;51.538;6.728;2024-03-29T04:29:51;98938.53;;;9.39;100.00
19086;BME280;9675;51.538;6.728;2024-03-29T04:32:18;98946.19;;;9.38;100.00
19086;BME280;9675;51.538;6.728;2024-03-29T04:34:47;98954.75;;;9.37;100.00
19086;BME280;9675;51.538;6.728;2024-03-29T04:37:14;98963.28;;;9.36;100.00
19086;BME280;9675;51.538;6.728;2024-03-29T04:39:42;98975.22;;;9.34;100.00
19086;BME280;9675;51.538;6.728;2024-03-29T04:42:11;98963.19;;;9.31;100.00
19086;BME280;9675;51.538;6.728;2024-03-29T04:44:40;98967.28;;;9.25;100.00
19086;BME280;9675;51.538;6.728;2024-03-29T04:47:07;98963.06;;;9.27;100.00
19086;BME280;9675;51.538;6.728;2024-03-29T04:49:35;98978.47;;;9.27;100.00
19086;BME280;9675;51.538;6.728;2024-03-29T04:52:04;98967.28;;;9.25;100.00
19086;BME280;9675;51.538;6.728;2024-03-29T04:54:31;98967.25;;;9.23;100.00
19086;BME280;9675;51.538;6.728;2024-03-29T04:56:59;98968.94;;;9.21;100.00
19086;BME280;9675;51.538;6.728;2024-03-29T04:59:29;98969.69;;;9.19;100.00
19086;BME280;9675;51.538;6.728;2024-03-29T05:01:56;98973.16;;;9.19;100.00
19086;BME280;9675;51.538;6.728;2024-03-29T05:04:23;98975.66;;;9.16;100.00
19086;BME280;9675;51.538;6.728;2024-03-29T05:09:20;98966.16;;;9.14;100.00
19086;BME280;9675;51.538;6.728;2024-03-29T05:11:48;98961.06;;;9.15;100.00
19086;BME280;9675;51.538;6.728;2024-03-29T05:14:15;98955.84;;;9.12;100.00
19086;BME280;9675;51.538;6.728;2024-03-29T05:16:46;98960.13;;;9.12;100.00
19086;BME280;9675;51.538;6.728;2024-03-29T05:19:15;98953.22;;;9.09;100.00
19086;BME280;9675;51.538;6.728;2024-03-29T05:21:42;98946.28;;;9.05;100.00
19086;BME280;9675;51.538;6.728;2024-03-29T05:24:09;98950.59;;;9.08;100.00
19086;BME280;9675;51.538;6.728;2024-03-29T05:26:36;98947.97;;;9.05;100.00
19086;BME280;9675;51.538;6.728;2024-03-29T05:29:03;98949.72;;;9.06;100.00
19086;BME280;9675;51.538;6.728;2024-03-29T05:31:30;98941.97;;;9.04;100.00
19086;BME280;9675;51.538;6.728;2024-03-29T05:33:59;98934.19;;;9.01;100.00
19086;BME280;9675;51.538;6.728;2024-03-29T05:36:27;98946.16;;;9.02;100.00
19086;BME280;9675;51.538;6.728;2024-03-29T05:38:54;98936.78;;;9.03;100.00
19086;BME280;9675;51.538;6.728;2024-03-29T05:41:22;98953.88;;;9.02;100.00
19086;BME280;9675;51.538;6.728;2024-03-29T05:43:49;98959.88;;;9.01;100.00
19086;BME280;9675;51.538;6.728;2024-03-29T05:46:16;98963.28;;;9.02;100.00
19086;BME280;9675;51.538;6.728;2024-03-29T05:48:44;98964.19;;;9.04;100.00
19086;BME280;9675;51.538;6.728;2024-03-29T05:51:12;98942.81;;;9.05;100.00
19086;BME280;9675;51.538;6.728;2024-03-29T05:53:40;98931.63;;;9.03;100.00
19086;BME280;9675;51.538;6.728;2024-03-29T05:56:07;98925.63;;;9.01;100.00
19086;BME280;9675;51.538;6.728;2024-03-29T05:58:34;98931.63;;;9.03;100.00
19086;BME280;9675;51.538;6.728;2024-03-29T06:01:01;98935.03;;;9.02;100.00
19086;BME280;9675;51.538;6.728;2024-03-29T06:03:28;98921.34;;;9.01;100.00
19086;BME280;9675;51.538;6.728;2024-03-29T06:05:56;98926.50;;;9.01;100.00
19086;BME280;9675;51.538;6.728;2024-03-29T06:08:24;98931.59;;;9.00;100.00
19086;BME280;9675;51.538;6.728;2024-03-29T06:10:53;98929.06;;;9.03;100.00
19086;BME280;9675;51.538;6.728;2024-03-29T06:13:20;98916.25;;;9.03;100.00
19086;BME280;9675;51.538;6.728;2024-03-29T06:16:15;98929.91;;;9.02;100.00
19086;BME280;9675;51.538;6.728;2024-03-29T06:18:59;98932.44;;;9.00;100.00
19086;BME280;9675;51.538;6.728;2024-03-29T06:21:26;98924.69;;;8.99;100.00
19086;BME280;9675;51.538;6.728;2024-03-29T06:23:54;98928.09;;;8.98;100.00
19086;BME280;9675;51.538;6.728;2024-03-29T06:26:21;98923.78;;;8.95;100.00
19086;BME280;9675;51.538;6.728;2024-03-29T06:28:49;98934.03;;;8.95;100.00
19086;BME280;9675;51.538;6.728;2024-03-29T06:31:16;98930.59;;;8.94;100.00
19086;BME280;9675;51.538;6.728;2024-03-29T06:33:43;98927.13;;;8.92;100.00
19086;BME280;9675;51.538;6.728;2024-03-29T06:36:09;98924.53;;;8.92;100.00
19086;BME280;9675;51.538;6.728;2024-03-29T06:38:36;98923.72;;;8.93;100.00
19086;BME280;9675;51.538;6.728;2024-03-29T06:41:05;98919.41;;;8.92;100.00
19086;BME280;9675;51.538;6.728;2024-03-29T06:43:33;98900.56;;;8.92;100.00
19086;BME280;9675;51.538;6.728;2024-03-29T06:46:00;98910.78;;;8.89;100.00
19086;BME280;9675;51.538;6.728;2024-03-29T06:48:28;98911.56;;;8.86;100.00
19086;BME280;9675;51.538;6.728;2024-03-29T06:51:00;98894.41;;;8.84;100.00
19086;BME280;9675;51.538;6.728;2024-03-29T06:53:27;98894.41;;;8.84;100.00
19086;BME280;9675;51.538;6.728;2024-03-29T06:55:55;98896.91;;;8.82;100.00
19086;BME280;9675;51.538;6.728;2024-03-29T06:58:24;98896.03;;;8.80;100.00
19086;BME280;9675;51.538;6.728;2024-03-29T07:00:51;98891.72;;;8.79;100.00
19086;BME280;9675;51.538;6.728;2024-03-29T07:03:18;98898.59;;;8.80;100.00
19086;BME280;9675;51.538;6.728;2024-03-29T07:05:46;98897.72;;;8.80;100.00
19086;BME280;9675;51.538;6.728;2024-03-29T07:08:13;98888.28;;;8.79;100.00
19086;BME280;9675;51.538;6.728;2024-03-29T07:10:41;98894.25;;;8.78;100.00
19086;BME280;9675;51.538;6.728;2024-03-29T07:13:09;98888.34;;;8.80;100.00
19086;BME280;9675;51.538;6.728;2024-03-29T07:15:37;98888.28;;;8.79;100.00
19086;BME280;9675;51.538;6.728;2024-03-29T07:18:05;98902.81;;;8.78;100.00
19086;BME280;9675;51.538;6.728;2024-03-29T07:20:32;98907.13;;;8.79;100.00
19086;BME280;9675;51.538;6.728;2024-03-29T07:23:00;98900.19;;;8.75;100.00
19086;BME280;9675;51.538;6.728;2024-03-29T07:25:27;98888.16;;;8.74;100.00
19086;BME280;9675;51.538;6.728;2024-03-29T07:27:54;98896.75;;;8.75;100.00
19086;BME280;9675;51.538;6.728;2024-03-29T07:30:21;98901.88;;;8.76;100.00
19086;BME280;9675;51.538;6.728;2024-03-29T07:32:50;98908.72;;;8.76;100.00
19086;BME280;9675;51.538;6.728;2024-03-29T07:35:17;98901.88;;;8.76;100.00
19086;BME280;9675;51.538;6.728;2024-03-29T07:37:44;98904.50;;;8.78;100.00
19086;BME280;9675;51.538;6.728;2024-03-29T07:40:15;98911.38;;;8.79;100.00
19086;BME280;9675;51.538;6.728;2024-03-29T07:42:42;98925.97;;;8.81;100.00
19086;BME280;9675;51.538;6.728;2024-03-29T07:45:09;98932.84;;;8.82;100.00
19086;BME280;9675;51.538;6.728;2024-03-29T07:47:36;98932.06;;;8.85;100.00
19086;BME280;9675;51.538;6.728;2024-03-29T07:50:05;98950.06;;;8.86;100.00
19086;BME280;9675;51.538;6.728;2024-03-29T07:52:34;98961.19;;;8.87;100.00
19086;BME280;9675;51.538;6.728;2024-03-29T07:55:01;98964.63;;;8.87;100.00
19086;BME280;9675;51.538;6.728;2024-03-29T07:57:28;98958.66;;;8.88;100.00
19086;BME280;9675;51.538;6.728;2024-03-29T07:59:57;98956.09;;;8.88;100.00
19086;BME280;9675;51.538;6.728;2024-03-29T08:02:24;98959.59;;;8.92;100.00
19086;BME280;9675;51.538;6.728;2024-03-29T08:04:52;98954.41;;;8.89;100.00
19086;BME280;9675;51.538;6.728;2024-03-29T08:07:21;98953.66;;;8.93;100.00
19086;BME280;9675;51.538;6.728;2024-03-29T08:09:49;98945.91;;;8.91;100.00
19086;BME280;9675;51.538;6.728;2024-03-29T08:12:16;98950.31;;;8.95;100.00
19086;BME280;9675;51.538;6.728;2024-03-29T08:14:43;98952.94;;;8.99;100.00
19086;BME280;9675;51.538;6.728;2024-03-29T08:17:12;98957.28;;;9.01;100.00
19086;BME280;9675;51.538;6.728;2024-03-29T08:19:40;98955.56;;;9.02;100.00
19086;BME280;9675;51.538;6.728;2024-03-29T08:22:08;98948.88;;;9.07;100.00
19086;BME280;9675;51.538;6.728;2024-03-29T08:24:37;98942.06;;;9.09;100.00
19086;BME280;9675;51.538;6.728;2024-03-29T08:27:05;98942.06;;;9.09;100.00
19086;BME280;9675;51.538;6.728;2024-03-29T08:29:32;98940.47;;;9.14;100.00
19086;BME280;9675;51.538;6.728;2024-03-29T08:31:59;98943.09;;;9.15;100.00
19086;BME280;9675;51.538;6.728;2024-03-29T08:34:26;98942.28;;;9.18;100.00
19086;BME280;9675;51.538;6.728;2024-03-29T08:36:56;98949.25;;;9.22;100.00
19086;BME280;9675;51.538;6.728;2024-03-29T08:39:24;98956.09;;;9.23;100.00
19086;BME280;9675;51.538;6.728;2024-03-29T08:41:52;98952.81;;;9.27;100.00
19086;BME280;9675;51.538;6.728;2024-03-29T08:44:19;98949.47;;;9.31;100.00
19086;BME280;9675;51.538;6.728;2024-03-29T08:46:46;98952.97;;;9.34;100.00
19086;BME280;9675;51.538;6.728;2024-03-29T08:49:14;98941.94;;;9.38;100.00
19086;BME280;9675;51.538;6.728;2024-03-29T08:51:41;98960.00;;;9.43;100.00
19086;BME280;9675;51.538;6.728;2024-03-29T08:54:08;98961.75;;;9.44;100.00
19086;BME280;9675;51.538;6.728;2024-03-29T08:56:36;98962.63;;;9.45;100.00
19086;BME280;9675;51.538;6.728;2024-03-29T08:59:04;98977.25;;;9.47;100.00
19086;BME280;9675;51.538;6.728;2024-03-29T09:01:33;98972.19;;;9.50;100.00
19086;BME280;9675;51.538;6.728;2024-03-29T09:04:01;98975.66;;;9.52;100.00
19086;BME280;9675;51.538;6.728;2024-03-29T09:06:30;98972.28;;;9.53;100.00
19086;BME280;9675;51.538;6.728;2024-03-29T09:08:57;98980.94;;;9.58;100.00
19086;BME280;9675;51.538;6.728;2024-03-29T09:11:24;98975.75;;;9.57;100.00
19086;BME280;9675;51.538;6.728;2024-03-29T09:13:52;98992.19;;;9.63;100.00
19086;BME280;9675;51.538;6.728;2024-03-29T09:16:21;98999.09;;;9.66;100.00
19086;BME280;9675;51.538;6.728;2024-03-29T09:18:50;98999.09;;;9.66;100.00
19086;BME280;9675;51.538;6.728;2024-03-29T09:21:17;99004.28;;;9.69;100.00
19086;BME280;9675;51.538;6.728;2024-03-29T09:23:46;99001.88;;;9.73;100.00
19086;BME280;9675;51.538;6.728;2024-03-29T09:26:14;99009.63;;;9.76;100.00
19086;BME280;9675;51.538;6.728;2024-03-29T09:28:41;98990.84;;;9.79;100.00
19086;BME280;9675;51.538;6.728;2024-03-29T09:31:08;98998.63;;;9.82;100.00
19086;BME280;9675;51.538;6.728;2024-03-29T09:33:37;99004.63;;;9.82;100.00
19086;BME280;9675;51.538;6.728;2024-03-29T09:36:05;99011.53;;;9.85;100.00
19086;BME280;9675;51.538;6.728;2024-03-29T09:38:32;99007.34;;;9.89;100.00
19086;BME280;9675;51.538;6.728;2024-03-29T09:41:09;99015.06;;;9.90;100.00
19086;BME280;9675;51.538;6.728;2024-03-29T09:43:37;99010.84;;;9.92;100.00
19086;BME280;9675;51.538;6.728;2024-03-29T09:46:05;99012.53;;;9.92;100.00
19086;BME280;9675;51.538;6.728;2024-03-29T09:48:33;99009.19;;;9.96;100.00
19086;BME280;9675;51.538;6.728;2024-03-29T09:51:06;99007.53;;;9.98;100.00
19086;BME280;9675;51.538;6.728;2024-03-29T09:53:35;99000.75;;;10.00;100.00
19086;BME280;9675;51.538;6.728;2024-03-29T09:56:04;99016.22;;;10.03;100.00
19086;BME280;9675;51.538;6.728;2024-03-29T09:58:31;99017.97;;;10.04;100.00
19086;BME280;9675;51.538;6.728;2024-03-29T10:01:00;99023.97;;;10.04;100.00
19086;BME280;9675;51.538;6.728;2024-03-29T10:03:30;99027.53;;;10.09;100.00
19086;BME280;9675;51.538;6.728;2024-03-29T10:05:58;99033.53;;;10.10;100.00
19086;BME280;9675;51.538;6.728;2024-03-29T10:08:28;99039.63;;;10.13;100.00
19086;BME280;9675;51.538;6.728;2024-03-29T10:10:56;99049.13;;;10.16;100.00
19086;BME280;9675;51.538;6.728;2024-03-29T10:13:24;99050.91;;;10.18;100.00
19086;BME280;9675;51.538;6.728;2024-03-29T10:15:51;99055.22;;;10.19;100.00
19086;BME280;9675;51.538;6.728;2024-03-29T10:18:21;99049.25;;;10.22;100.00
19086;BME280;9675;51.538;6.728;2024-03-29T10:20:59;99053.63;;;10.26;100.00
19086;BME280;9675;51.538;6.728;2024-03-29T10:23:28;99051.13;;;10.29;100.00
19086;BME280;9675;51.538;6.728;2024-03-29T10:25:55;99051.19;;;10.32;100.00
19086;BME280;9675;51.538;6.728;2024-03-29T10:28:23;99054.69;;;10.34;100.00
19086;BME280;9675;51.538;6.728;2024-03-29T10:30:50;99054.72;;;10.37;100.00
19086;BME280;9675;51.538;6.728;2024-03-29T10:33:17;99044.53;;;10.40;100.00
19086;BME280;9675;51.538;6.728;2024-03-29T10:35:45;99053.19;;;10.45;100.00
19086;BME280;9675;51.538;6.728;2024-03-29T10:38:12;99045.47;;;10.45;100.00
19086;BME280;9675;51.538;6.728;2024-03-29T10:40:41;99045.53;;;10.48;100.00
19086;BME280;9675;51.538;6.728;2024-03-29T10:43:10;99045.56;;;10.50;100.00
19086;BME280;9675;51.538;6.728;2024-03-29T10:45:39;99049.97;;;10.55;100.00
19086;BME280;9675;51.538;6.728;2024-03-29T10:48:09;99046.56;;;10.56;100.00
19086;BME280;9675;51.538;6.728;2024-03-29T10:50:39;99044.84;;;10.57;100.00
19086;BME280;9675;51.538;6.728;2024-03-29T10:53:09;99038.94;;;10.62;100.00
19086;BME280;9675;51.538;6.728;2024-03-29T10:55:37;99040.78;;;10.67;100.00
19086;BME280;9675;51.538;6.728;2024-03-29T10:58:06;99038.19;;;10.67;100.00
19086;BME280;9675;51.538;6.728;2024-03-29T11:00:38;99032.34;;;10.75;100.00
19086;BME280;9675;51.538;6.728;2024-03-29T11:03:14;99036.72;;;10.79;100.00
19086;BME280;9675;51.538;6.728;2024-03-29T11:05:48;99033.47;;;10.88;100.00
19086;BME280;9675;51.538;6.728;2024-03-29T11:08:21;99029.38;;;10.97;100.00
19086;BME280;9675;51.538;6.728;2024-03-29T11:10:51;99036.28;;;11.01;100.00
19086;BME280;9675;51.538;6.728;2024-03-29T11:13:29;99038.94;;;11.06;100.00
19086;BME280;9675;51.538;6.728;2024-03-29T11:16:00;99039.06;;;11.12;100.00
19086;BME280;9675;51.538;6.728;2024-03-29T11:18:28;99040.94;;;11.21;100.00
19086;BME280;9675;51.538;6.728;2024-03-29T11:20:57;99053.88;;;11.25;100.00
19086;BME280;9675;51.538;6.728;2024-03-29T11:23:27;99040.22;;;11.28;100.00
19086;BME280;9675;51.538;6.728;2024-03-29T11:25:55;99060.91;;;11.32;100.00
19086;BME280;9675;51.538;6.728;2024-03-29T11:28:26;99054.09;;;11.36;100.00
19086;BME280;9675;51.538;6.728;2024-03-29T11:31:00;99055.03;;;11.41;100.00
19086;BME280;9675;51.538;6.728;2024-03-29T11:33:31;99053.44;;;11.47;100.00
19086;BME280;9675;51.538;6.728;2024-03-29T11:36:00;99045.84;;;11.57;100.00
19086;BME280;9675;51.538;6.728;2024-03-29T11:38:34;99037.34;;;11.62;100.00
19086;BME280;9675;51.538;6.728;2024-03-29T11:41:05;99028.91;;;11.72;100.00
19086;BME280;9675;51.538;6.728;2024-03-29T11:43:35;99020.47;;;11.79;100.00
19086;BME280;9675;51.538;6.728;2024-03-29T11:46:06;99012.03;;;11.89;100.00
19086;BME280;9675;51.538;6.728;2024-03-29T11:48:34;99018.19;;;11.99;100.00
19086;BME280;9675;51.538;6.728;2024-03-29T11:51:04;99041.53;;;12.07;100.00
19086;BME280;9675;51.538;6.728;2024-03-29T11:53:32;99058.00;;;12.16;100.00
19086;BME280;9675;51.538;6.728;2024-03-29T11:56:01;99048.81;;;12.37;100.00
19086;BME280;9675;51.538;6.728;2024-03-29T11:58:32;99061.03;;;12.48;100.00
19086;BME280;9675;51.538;6.728;2024-03-29T12:01:01;99081.75;;;12.53;100.00
19086;BME280;9675;51.538;6.728;2024-03-29T12:03:30;99081.75;;;12.56;100.00
19086;BME280;9675;51.538;6.728;2024-03-29T12:05:59;99084.41;;;12.59;100.00
19086;BME280;9675;51.538;6.728;2024-03-29T12:08:29;99087.88;;;12.62;100.00
19086;BME280;9675;51.538;6.728;2024-03-29T12:10:58;99093.09;;;12.64;100.00
19086;BME280;9675;51.538;6.728;2024-03-29T12:13:25;99094.84;;;12.68;100.00
19086;BME280;9675;51.538;6.728;2024-03-29T12:15:52;99087.97;;;12.70;100.00
19086;BME280;9675;51.538;6.728;2024-03-29T12:18:22;99101.81;;;12.73;100.00
19086;BME280;9675;51.538;6.728;2024-03-29T12:20:52;99091.47;;;12.75;100.00
19086;BME280;9675;51.538;6.728;2024-03-29T12:23:21;99086.38;;;12.78;100.00
19086;BME280;9675;51.538;6.728;2024-03-29T12:25:50;99083.81;;;12.81;100.00
19086;BME280;9675;51.538;6.728;2024-03-29T12:28:18;99095.06;;;12.85;100.00
19086;BME280;9675;51.538;6.728;2024-03-29T12:30:47;99082.16;;;12.85;100.00
19086;BME280;9675;51.538;6.728;2024-03-29T12:33:17;99090.78;;;12.88;100.00
19086;BME280;9675;51.538;6.728;2024-03-29T12:35:48;99094.25;;;12.89;100.00
19086;BME280;9675;51.538;6.728;2024-03-29T12:38:17;99089.94;;;12.89;100.00
19086;BME280;9675;51.538;6.728;2024-03-29T12:40:46;99094.25;;;12.89;100.00
19086;BME280;9675;51.538;6.728;2024-03-29T12:43:19;99094.25;;;12.90;100.00
19086;BME280;9675;51.538;6.728;2024-03-29T12:45:49;99085.69;;;12.93;100.00
19086;BME280;9675;51.538;6.728;2024-03-29T12:48:18;99092.56;;;12.92;100.00
19086;BME280;9675;51.538;6.728;2024-03-29T12:50:47;99093.41;;;12.91;100.00
19086;BME280;9675;51.538;6.728;2024-03-29T12:53:16;99103.81;;;12.97;100.00
19086;BME280;9675;51.538;6.728;2024-03-29T12:55:45;99098.69;;;13.00;100.00
19086;BME280;9675;51.538;6.728;2024-03-29T12:58:14;99104.72;;;13.02;100.00
19086;BME280;9675;51.538;6.728;2024-03-29T13:00:42;99087.53;;;13.04;100.00
19086;BME280;9675;51.538;6.728;2024-03-29T13:03:10;99101.31;;;13.06;100.00
19086;BME280;9675;51.538;6.728;2024-03-29T13:05:39;99099.63;;;13.08;100.00
19086;BME280;9675;51.538;6.728;2024-03-29T13:08:11;99086.78;;;13.11;100.00
19086;BME280;9675;51.538;6.728;2024-03-29T13:10:41;99094.56;;;13.14;100.00
19086;BME280;9675;51.538;6.728;2024-03-29T13:13:09;99089.41;;;13.16;100.00
19086;BME280;9675;51.538;6.728;2024-03-29T13:15:38;99094.63;;;13.19;100.00
19086;BME280;9675;51.538;6.728;2024-03-29T13:18:07;99106.69;;;13.22;100.00
19086;BME280;9675;51.538;6.728;2024-03-29T13:20:36;99105.03;;;13.25;100.00